Time;durP1;ratioP1;P1;durP2;ratioP2;P2;SDS_P1;SDS_P2;PMS_P1;PMS_P2;Temp;Humidity;BMP_temperature;BMP_pressure;BME280_temperature;BME280_humidity;BME280_pressure;Samples;Min_cycle;Max_cycle;Signal;HPM_P1;HPM_P2
2023/12/07 00:00:06;;;;;;;54.77;23.33;;;;;;;;;;5042771;28;20036;-77
2023/12/07 00:02:32;;;;;;;59.83;23.53;;;;;;;;;;5030121;28;20034;-74
2023/12/07 00:04:59;;;;;;;50.27;23.00;;;;;;;;;;5031793;28;20389;-76
2023/12/07 00:07:25;;;;;;;62.33;25.83;;;;;;;;;;5031577;28;20083;-73
2023/12/07 00:09:51;;;;;;;44.07;18.13;;;;;;;;;;5028294;28;20032;-75
2023/12/07 00:12:17;;;;;;;32.33;15.43;;;;;;;;;;5010089;28;20030;-74
2023/12/07 00:14:42;;;;;;;27.50;14.53;;;;;;;;;;5011406;28;20048;-74
2023/12/07 00:17:09;;;;;;;29.33;14.23;;;;;;;;;;5009977;28;20014;-76
2023/12/07 00:19:35;;;;;;;31.70;13.77;;;;;;;;;;5013158;28;20052;-75
2023/12/07 00:22:00;;;;;;;32.60;13.67;;;;;;;;;;5012802;28;20421;-74
2023/12/07 00:24:26;;;;;;;31.13;12.60;;;;;;;;;;5031228;28;20022;-75
2023/12/07 00:26:51;;;;;;;28.50;13.27;;;;;;;;;;5033351;28;20056;-75
2023/12/07 00:29:18;;;;;;;30.40;12.33;;;;;;;;;;5041216;28;20037;-73
2023/12/07 00:31:43;;;;;;;31.23;12.43;;;;;;;;;;5024261;28;20033;-73
2023/12/07 00:34:09;;;;;;;26.10;11.50;;;;;;;;;;5029060;28;20499;-76
2023/12/07 00:36:35;;;;;;;25.67;11.53;;;;;;;;;;5029764;28;20133;-76
2023/12/07 00:39:01;;;;;;;25.03;11.10;;;;;;;;;;5031832;28;20058;-73
2023/12/07 00:41:26;;;;;;;27.07;12.10;;;;;;;;;;5044730;28;20029;-69
2023/12/07 00:43:52;;;;;;;21.30;10.43;;;;;;;;;;5052081;28;20018;-71
2023/12/07 00:46:17;;;;;;;24.07;10.77;;;;;;;;;;5027491;28;20036;-72
2023/12/07 00:48:42;;;;;;;21.10;10.43;;;;;;;;;;5016578;28;20025;-74
2023/12/07 00:51:08;;;;;;;17.07;9.13;;;;;;;;;;5028665;28;20057;-74
2023/12/07 00:53:33;;;;;;;20.57;10.37;;;;;;;;;;5030055;28;20041;-73
2023/12/07 00:55:59;;;;;;;23.73;10.03;;;;;;;;;;5029953;28;20448;-74
2023/12/07 00:58:25;;;;;;;16.97;8.83;;;;;;;;;;5029374;28;20025;-73
2023/12/07 01:00:51;;;;;;;17.93;8.83;;;;;;;;;;5029021;28;20045;-75
2023/12/07 01:03:17;;;;;;;17.93;9.57;;;;;;;;;;5029130;28;20441;-72
2023/12/07 01:05:43;;;;;;;15.67;8.37;;;;;;;;;;5030204;28;20029;-74
2023/12/07 01:08:09;;;;;;;17.80;8.73;;;;;;;;;;5028789;28;20021;-74
2023/12/07 01:10:34;;;;;;;16.77;8.43;;;;;;;;;;5026172;28;20033;-75
2023/12/07 01:13:00;;;;;;;15.20;8.63;;;;;;;;;;5008962;28;20634;-73
2023/12/07 01:15:25;;;;;;;14.50;8.40;;;;;;;;;;5010435;28;20100;-74
2023/12/07 01:17:51;;;;;;;15.67;7.73;;;;;;;;;;5009112;28;20026;-74
2023/12/07 01:20:17;;;;;;;19.30;8.77;;;;;;;;;;5010398;28;20033;-75
2023/12/07 01:22:45;;;;;;;17.07;7.77;;;;;;;;;;5010276;28;20033;-76
2023/12/07 01:25:11;;;;;;;18.23;9.40;;;;;;;;;;5008735;28;20032;-75
2023/12/07 01:27:37;;;;;;;17.87;8.73;;;;;;;;;;5009711;28;20352;-74
2023/12/07 01:30:03;;;;;;;15.00;7.73;;;;;;;;;;5010325;28;20040;-77
2023/12/07 01:32:29;;;;;;;17.37;8.27;;;;;;;;;;5009879;28;20025;-73
2023/12/07 01:34:55;;;;;;;13.73;7.97;;;;;;;;;;5015960;28;20029;-76
2023/12/07 01:37:20;;;;;;;20.07;9.03;;;;;;;;;;5028454;28;20442;-75
2023/12/07 01:39:46;;;;;;;17.07;8.87;;;;;;;;;;5029312;28;20052;-73
2023/12/07 01:42:13;;;;;;;17.67;8.13;;;;;;;;;;5028432;28;20021;-74
2023/12/07 01:44:39;;;;;;;14.87;8.40;;;;;;;;;;5030135;28;20407;-72
2023/12/07 01:47:08;;;;;;;18.57;7.50;;;;;;;;;;5022042;28;20030;-74
2023/12/07 01:49:35;;;;;;;16.07;8.13;;;;;;;;;;5013934;28;20088;-73
2023/12/07 01:52:03;;;;;;;18.07;8.43;;;;;;;;;;5013979;28;20026;-73
2023/12/07 01:54:29;;;;;;;18.50;8.03;;;;;;;;;;5013774;28;20458;-73
2023/12/07 01:56:56;;;;;;;18.90;8.53;;;;;;;;;;5013610;28;20026;-75
2023/12/07 01:59:23;;;;;;;16.03;8.57;;;;;;;;;;5024429;28;20044;-75
2023/12/07 02:01:49;;;;;;;14.27;7.40;;;;;;;;;;5024810;28;20379;-75
2023/12/07 02:04:15;;;;;;;16.73;8.67;;;;;;;;;;5013025;28;20109;-76
2023/12/07 02:06:41;;;;;;;19.07;8.53;;;;;;;;;;5013934;28;20030;-75
2023/12/07 02:09:07;;;;;;;16.53;8.43;;;;;;;;;;5012626;28;20033;-73
2023/12/07 02:11:32;;;;;;;14.00;7.23;;;;;;;;;;5024814;28;20120;-74
2023/12/07 02:13:58;;;;;;;14.63;7.53;;;;;;;;;;5031464;28;20032;-75
2023/12/07 02:16:31;;;;;;;17.93;8.63;;;;;;;;;;5033411;28;20018;-74
2023/12/07 02:19:19;;;;;;;13.87;7.90;;;;;;;;;;5033368;28;20098;-77
2023/12/07 02:21:51;;;;;;;13.03;7.83;;;;;;;;;;5031803;28;20040;-76
2023/12/07 02:24:20;;;;;;;;;;;;;;;;;;5014017;28;20033;-75
2023/12/07 02:26:46;;;;;;;14.40;6.97;;;;;;;;;;5013647;28;19913;-74
2023/12/07 02:29:13;;;;;;;14.07;7.57;;;;;;;;;;5013496;28;20073;-73
2023/12/07 02:31:38;;;;;;;14.00;7.13;;;;;;;;;;5013404;28;20057;-74
2023/12/07 02:34:04;;;;;;;13.57;7.73;;;;;;;;;;5014754;28;20788;-75
2023/12/07 02:36:32;;;;;;;11.07;7.20;;;;;;;;;;5026138;28;20114;-72
2023/12/07 02:39:01;;;;;;;13.50;8.20;;;;;;;;;;5017080;28;20022;-75
2023/12/07 02:41:27;;;;;;;10.23;6.73;;;;;;;;;;5014140;28;20040;-74
2023/12/07 02:43:54;;;;;;;11.30;6.40;;;;;;;;;;5013400;28;20026;-74
2023/12/07 02:46:19;;;;;;;14.33;7.23;;;;;;;;;;5016774;28;20021;-74
2023/12/07 02:48:45;;;;;;;12.20;7.20;;;;;;;;;;5031448;28;20444;-75
2023/12/07 02:51:10;;;;;;;11.03;6.87;;;;;;;;;;5036698;28;20359;-69
2023/12/07 02:53:36;;;;;;;14.00;6.90;;;;;;;;;;5045307;28;20458;-73
2023/12/07 02:56:03;;;;;;;11.37;7.00;;;;;;;;;;5040024;28;20060;-73
2023/12/07 02:58:29;;;;;;;21.10;11.67;;;;;;;;;;5031189;28;20033;-70
2023/12/07 03:00:54;;;;;;;10.57;6.23;;;;;;;;;;5013486;28;20032;-74
2023/12/07 03:03:20;;;;;;;11.07;6.20;;;;;;;;;;5032719;28;20037;-75
2023/12/07 03:05:45;;;;;;;12.30;7.33;;;;;;;;;;5030664;28;20512;-72
2023/12/07 03:08:11;;;;;;;11.67;6.23;;;;;;;;;;5032148;28;20746;-72
2023/12/07 03:10:36;;;;;;;9.13;6.63;;;;;;;;;;5029234;28;20032;-73
2023/12/07 03:13:02;;;;;;;12.57;7.03;;;;;;;;;;5010924;28;20050;-73
2023/12/07 03:15:28;;;;;;;12.43;7.20;;;;;;;;;;5012669;28;20101;-73
2023/12/07 03:17:54;;;;;;;10.77;6.47;;;;;;;;;;5010917;28;20087;-75
2023/12/07 03:20:21;;;;;;;12.73;6.73;;;;;;;;;;5012551;28;20030;-72
2023/12/07 03:22:46;;;;;;;12.27;6.67;;;;;;;;;;5015132;28;20029;-74
2023/12/07 03:25:13;;;;;;;13.40;7.43;;;;;;;;;;5031318;28;20029;-75
2023/12/07 03:27:38;;;;;;;13.00;7.07;;;;;;;;;;5030421;28;20030;-74
2023/12/07 03:30:05;;;;;;;11.47;6.63;;;;;;;;;;5030795;28;20035;-75
2023/12/07 03:32:30;;;;;;;9.43;6.37;;;;;;;;;;5031204;28;20108;-75
2023/12/07 03:34:56;;;;;;;10.17;6.70;;;;;;;;;;5024346;28;20552;-76
2023/12/07 03:37:21;;;;;;;12.90;6.70;;;;;;;;;;5012637;28;20021;-72
2023/12/07 03:39:48;;;;;;;12.77;6.20;;;;;;;;;;5010628;28;20042;-74
2023/12/07 03:42:13;;;;;;;12.27;6.97;;;;;;;;;;5012414;28;20108;-73
2023/12/07 03:44:39;;;;;;;12.63;7.30;;;;;;;;;;5010459;28;20117;-75
2023/12/07 03:47:05;;;;;;;11.30;7.13;;;;;;;;;;5015171;28;20408;-76
2023/12/07 03:49:30;;;;;;;12.40;7.27;;;;;;;;;;5031783;28;20029;-75
2023/12/07 03:51:57;;;;;;;12.03;7.13;;;;;;;;;;5031660;28;20380;-75
2023/12/07 03:54:22;;;;;;;12.53;7.67;;;;;;;;;;5031720;28;20061;-75
2023/12/07 03:56:48;;;;;;;12.17;6.87;;;;;;;;;;5013583;28;20025;-76
2023/12/07 03:59:15;;;;;;;12.07;6.50;;;;;;;;;;5021578;28;20034;-76
2023/12/07 04:01:40;;;;;;;12.53;6.63;;;;;;;;;;5010424;28;20168;-76
2023/12/07 04:04:06;;;;;;;11.37;7.10;;;;;;;;;;5010626;28;20120;-73
2023/12/07 04:06:31;;;;;;;11.50;7.37;;;;;;;;;;5011410;28;20041;-77
2023/12/07 04:08:57;;;;;;;13.03;6.57;;;;;;;;;;5010673;28;20036;-75
2023/12/07 04:11:22;;;;;;;13.03;8.03;;;;;;;;;;5018856;28;20452;-73
2023/12/07 04:13:48;;;;;;;12.20;6.73;;;;;;;;;;5030545;28;20567;-76
2023/12/07 04:16:16;;;;;;;9.07;5.73;;;;;;;;;;5029559;28;20037;-76
2023/12/07 04:18:42;;;;;;;9.57;5.77;;;;;;;;;;5029024;28;20123;-75
2023/12/07 04:21:08;;;;;;;11.03;6.47;;;;;;;;;;5011598;28;20033;-78
2023/12/07 04:23:33;;;;;;;12.27;7.27;;;;;;;;;;5012602;28;20057;-71
2023/12/07 04:25:59;;;;;;;11.03;6.67;;;;;;;;;;5010046;28;20513;-75
2023/12/07 04:28:24;;;;;;;13.00;7.63;;;;;;;;;;5010123;28;20034;-75
2023/12/07 04:30:50;;;;;;;12.47;7.10;;;;;;;;;;5029077;28;20037;-74
2023/12/07 04:33:16;;;;;;;11.00;7.30;;;;;;;;;;5032042;28;20449;-75
2023/12/07 04:35:41;;;;;;;9.33;6.60;;;;;;;;;;5031523;28;20025;-75
2023/12/07 04:38:07;;;;;;;13.00;7.83;;;;;;;;;;5035631;28;20061;-74
2023/12/07 04:40:32;;;;;;;14.10;6.83;;;;;;;;;;5034557;28;20102;-72
2023/12/07 04:42:58;;;;;;;14.73;6.57;;;;;;;;;;5021923;28;20033;-73
2023/12/07 04:45:25;;;;;;;17.40;7.67;;;;;;;;;;5024364;28;20034;-72
2023/12/07 04:47:50;;;;;;;11.40;6.83;;;;;;;;;;5011832;28;20038;-72
2023/12/07 04:50:16;;;;;;;9.10;6.17;;;;;;;;;;5015039;28;20113;-73
2023/12/07 04:52:41;;;;;;;8.83;5.77;;;;;;;;;;5018417;28;20029;-74
2023/12/07 04:55:07;;;;;;;11.13;7.20;;;;;;;;;;5049059;28;20448;-74
2023/12/07 04:57:35;;;;;;;9.80;6.20;;;;;;;;;;5031625;28;20614;-74
2023/12/07 05:00:05;;;;;;;15.47;7.10;;;;;;;;;;5034829;28;20036;-74
2023/12/07 05:02:32;;;;;;;13.13;7.10;;;;;;;;;;5014734;28;20038;-73
2023/12/07 05:04:57;;;;;;;11.33;7.07;;;;;;;;;;5024212;28;20071;-70
2023/12/07 05:07:23;;;;;;;11.53;6.90;;;;;;;;;;5052236;28;20092;-73
2023/12/07 05:09:50;;;;;;;10.03;5.87;;;;;;;;;;5030755;28;20040;-76
2023/12/07 05:12:16;;;;;;;12.90;6.27;;;;;;;;;;5029321;28;20053;-76
2023/12/07 05:14:42;;;;;;;11.17;7.03;;;;;;;;;;5028709;28;20079;-76
2023/12/07 05:17:08;;;;;;;12.63;7.00;;;;;;;;;;5029664;28;20029;-75
2023/12/07 05:19:34;;;;;;;11.63;6.97;;;;;;;;;;5030381;28;20053;-76
2023/12/07 05:21:59;;;;;;;12.33;7.40;;;;;;;;;;5027694;28;20482;-77
2023/12/07 05:24:25;;;;;;;12.77;7.27;;;;;;;;;;5028445;28;20040;-76
2023/12/07 05:26:51;;;;;;;11.97;7.50;;;;;;;;;;5029561;28;20041;-76
2023/12/07 05:29:17;;;;;;;8.80;6.43;;;;;;;;;;5024428;28;20266;-73
2023/12/07 05:31:44;;;;;;;11.90;7.03;;;;;;;;;;5009905;28;20099;-74
2023/12/07 05:34:09;;;;;;;13.03;6.93;;;;;;;;;;5010399;28;20117;-76
2023/12/07 05:36:36;;;;;;;18.87;7.00;;;;;;;;;;5010170;28;20113;-74
2023/12/07 05:39:02;;;;;;;14.30;6.70;;;;;;;;;;5008845;28;20100;-75
2023/12/07 05:41:28;;;;;;;12.27;7.13;;;;;;;;;;5014680;28;20041;-75
2023/12/07 05:43:53;;;;;;;13.37;7.30;;;;;;;;;;5028326;28;20034;-74
2023/12/07 05:46:19;;;;;;;13.63;7.13;;;;;;;;;;5029796;28;20041;-73
2023/12/07 05:48:45;;;;;;;10.47;6.80;;;;;;;;;;5030159;28;20033;-74
2023/12/07 05:51:17;;;;;;;10.67;6.57;;;;;;;;;;5030003;28;20109;-75
2023/12/07 05:53:43;;;;;;;13.05;6.70;;;;;;;;;;5021208;28;20120;-75
2023/12/07 05:56:09;;;;;;;13.77;8.87;;;;;;;;;;5010837;28;20042;-73
2023/12/07 05:58:37;;;;;;;12.70;7.07;;;;;;;;;;5010545;28;20494;-77
2023/12/07 06:01:05;;;;;;;17.60;7.83;;;;;;;;;;5008556;28;20532;-75
2023/12/07 06:03:30;;;;;;;13.30;7.50;;;;;;;;;;5010065;28;20025;-74
2023/12/07 06:05:56;;;;;;;11.47;6.60;;;;;;;;;;5014359;28;20060;-76
2023/12/07 06:08:22;;;;;;;15.33;7.83;;;;;;;;;;5028927;28;20029;-77
2023/12/07 06:10:48;;;;;;;16.83;7.73;;;;;;;;;;5028989;28;20544;-74
2023/12/07 06:13:14;;;;;;;20.77;9.40;;;;;;;;;;5011850;28;20143;-75
2023/12/07 06:15:41;;;;;;;13.53;7.57;;;;;;;;;;5028047;28;20179;-74
2023/12/07 06:18:06;;;;;;;15.23;8.27;;;;;;;;;;5029011;28;20056;-73
2023/12/07 06:20:32;;;;;;;13.67;7.53;;;;;;;;;;5029625;28;20461;-74
2023/12/07 06:22:58;;;;;;;15.03;6.90;;;;;;;;;;5027761;28;20026;-75
2023/12/07 06:25:23;;;;;;;17.67;8.13;;;;;;;;;;5029582;28;20032;-75
2023/12/07 06:27:50;;;;;;;15.53;7.43;;;;;;;;;;5026626;28;20029;-76
2023/12/07 06:30:16;;;;;;;12.27;6.80;;;;;;;;;;5013738;28;20034;-74
2023/12/07 06:32:42;;;;;;;12.70;7.27;;;;;;;;;;5009890;28;20032;-74
2023/12/07 06:35:08;;;;;;;18.70;9.03;;;;;;;;;;5011816;28;20401;-75
2023/12/07 06:37:33;;;;;;;16.23;8.47;;;;;;;;;;5013254;28;20026;-74
2023/12/07 06:40:00;;;;;;;15.33;8.30;;;;;;;;;;5011532;28;20386;-74
2023/12/07 06:42:26;;;;;;;14.73;7.97;;;;;;;;;;5011347;28;20030;-76
2023/12/07 06:44:53;;;;;;;20.53;9.97;;;;;;;;;;5011913;28;20120;-73
2023/12/07 06:47:18;;;;;;;15.57;8.20;;;;;;;;;;5011727;28;20057;-73
2023/12/07 06:49:46;;;;;;;15.50;9.40;;;;;;;;;;5013499;28;20466;-76
2023/12/07 06:52:14;;;;;;;17.67;9.27;;;;;;;;;;5014212;28;20026;-76
2023/12/07 06:54:40;;;;;;;18.93;8.37;;;;;;;;;;5014393;28;20083;-74
2023/12/07 06:57:06;;;;;;;13.47;7.90;;;;;;;;;;5022741;28;20014;-72
2023/12/07 06:59:33;;;;;;;22.53;9.43;;;;;;;;;;5026856;28;20013;-75
2023/12/07 07:01:58;;;;;;;14.83;8.20;;;;;;;;;;5036026;28;20413;-75
2023/12/07 07:04:24;;;;;;;13.93;8.33;;;;;;;;;;5045263;28;20038;-74
2023/12/07 07:06:51;;;;;;;14.43;8.70;;;;;;;;;;5021531;28;20033;-74
2023/12/07 07:09:17;;;;;;;15.40;8.77;;;;;;;;;;5009554;28;20393;-76
2023/12/07 07:11:47;;;;;;;14.30;8.10;;;;;;;;;;5016720;28;20073;-71
2023/12/07 07:14:13;;;;;;;16.00;8.77;;;;;;;;;;5039083;28;20026;-76
2023/12/07 07:16:39;;;;;;;14.97;8.67;;;;;;;;;;5043419;28;20116;-74
2023/12/07 07:19:04;;;;;;;17.37;10.00;;;;;;;;;;5044331;28;20029;-73
2023/12/07 07:21:30;;;;;;;17.63;9.27;;;;;;;;;;5033840;28;20103;-74
2023/12/07 07:23:56;;;;;;;19.37;9.73;;;;;;;;;;5029241;28;20029;-76
2023/12/07 07:26:22;;;;;;;17.53;9.77;;;;;;;;;;5025807;28;20105;-75
2023/12/07 07:28:47;;;;;;;15.90;9.53;;;;;;;;;;5025936;28;20068;-72
2023/12/07 07:31:13;;;;;;;21.90;9.30;;;;;;;;;;5012233;28;20061;-74
2023/12/07 07:33:38;;;;;;;17.10;8.67;;;;;;;;;;5028094;28;20033;-75
2023/12/07 07:36:04;;;;;;;19.23;11.93;;;;;;;;;;5024735;28;20041;-70
2023/12/07 07:38:30;;;;;;;18.00;10.63;;;;;;;;;;5028068;28;20304;-77
2023/12/07 07:40:55;;;;;;;15.53;8.57;;;;;;;;;;5029033;28;20429;-77
2023/12/07 07:43:21;;;;;;;23.07;10.57;;;;;;;;;;5015776;28;20087;-76
2023/12/07 07:45:48;;;;;;;15.67;10.07;;;;;;;;;;5021888;28;20026;-75
2023/12/07 07:48:14;;;;;;;16.47;9.47;;;;;;;;;;5020744;28;20108;-75
2023/12/07 07:50:40;;;;;;;18.60;9.13;;;;;;;;;;5041041;28;20123;-74
2023/12/07 07:53:05;;;;;;;16.63;9.70;;;;;;;;;;5036400;28;20029;-73
2023/12/07 07:55:31;;;;;;;19.57;10.00;;;;;;;;;;5021411;28;20054;-73
2023/12/07 07:57:57;;;;;;;18.27;9.70;;;;;;;;;;5030619;28;20033;-74
2023/12/07 08:00:25;;;;;;;18.57;9.63;;;;;;;;;;5030933;28;20052;-71
2023/12/07 08:02:52;;;;;;;24.13;12.37;;;;;;;;;;5028613;28;20037;-73
2023/12/07 08:05:18;;;;;;;21.70;10.60;;;;;;;;;;5025758;28;20603;-75
2023/12/07 08:07:43;;;;;;;22.40;9.23;;;;;;;;;;5023650;28;20021;-72
2023/12/07 08:10:10;;;;;;;22.93;11.37;;;;;;;;;;5011084;28;20087;-71
2023/12/07 08:13:01;;;;;;;17.13;9.97;;;;;;;;;;5019738;28;20029;-74
2023/12/07 08:15:27;;;;;;;20.75;10.73;;;;;;;;;;5029872;28;20105;-76
2023/12/07 08:17:56;;;;;;;18.10;9.33;;;;;;;;;;5032510;28;20116;-74
2023/12/07 08:20:21;;;;;;;28.40;11.67;;;;;;;;;;5027492;28;20345;-73
2023/12/07 08:22:47;;;;;;;33.27;13.33;;;;;;;;;;5027583;28;20036;-77
2023/12/07 08:25:12;;;;;;;21.73;11.07;;;;;;;;;;5031913;28;20037;-78
2023/12/07 08:27:38;;;;;;;19.87;11.00;;;;;;;;;;5036272;28;20158;-78
2023/12/07 08:30:05;;;;;;;21.77;9.27;;;;;;;;;;5027739;28;20101;-74
2023/12/07 08:32:31;;;;;;;21.97;10.90;;;;;;;;;;5027850;28;20111;-74
2023/12/07 08:34:57;;;;;;;22.43;11.20;;;;;;;;;;5027243;28;20116;-75
2023/12/07 08:37:22;;;;;;;19.20;10.70;;;;;;;;;;5019443;28;20048;-70
2023/12/07 08:39:48;;;;;;;25.23;11.03;;;;;;;;;;5021964;28;20030;-74
2023/12/07 08:42:14;;;;;;;19.87;11.60;;;;;;;;;;5020571;28;20021;-74
2023/12/07 08:44:40;;;;;;;18.83;10.03;;;;;;;;;;5029475;28;20029;-74
2023/12/07 08:47:05;;;;;;;25.60;12.03;;;;;;;;;;5035717;28;20071;-77
2023/12/07 08:49:32;;;;;;;28.80;12.90;;;;;;;;;;5033591;28;20029;-73
2023/12/07 08:51:58;;;;;;;22.80;11.33;;;;;;;;;;5023804;28;20026;-71
2023/12/07 08:54:24;;;;;;;21.77;11.23;;;;;;;;;;5039511;28;20076;-75
2023/12/07 08:56:51;;;;;;;24.43;11.37;;;;;;;;;;5030893;28;20040;-74
2023/12/07 08:59:17;;;;;;;23.20;11.27;;;;;;;;;;5025255;28;20406;-77
2023/12/07 09:01:43;;;;;;;21.07;10.90;;;;;;;;;;5032849;28;20114;-70
2023/12/07 09:04:09;;;;;;;18.00;10.43;;;;;;;;;;5000705;28;20519;-75
2023/12/07 09:06:36;;;;;;;24.77;11.90;;;;;;;;;;5030007;28;20532;-73
2023/12/07 09:09:05;;;;;;;22.30;11.47;;;;;;;;;;5018051;28;20029;-75
2023/12/07 09:11:32;;;;;;;25.13;10.33;;;;;;;;;;5028443;28;20037;-75
2023/12/07 09:13:58;;;;;;;19.60;10.20;;;;;;;;;;5019547;28;20039;-75
2023/12/07 09:16:25;;;;;;;20.20;11.43;;;;;;;;;;5017395;28;20022;-72
2023/12/07 09:18:51;;;;;;;22.67;10.30;;;;;;;;;;5021252;28;20813;-74
2023/12/07 09:21:17;;;;;;;26.77;12.47;;;;;;;;;;5029900;28;20036;-74
2023/12/07 09:23:42;;;;;;;21.53;10.57;;;;;;;;;;5020112;28;20028;-76
2023/12/07 09:26:08;;;;;;;19.80;12.00;;;;;;;;;;5021348;28;20098;-75
2023/12/07 09:28:34;;;;;;;20.17;10.83;;;;;;;;;;5022288;28;20120;-76
2023/12/07 09:31:00;;;;;;;23.67;11.63;;;;;;;;;;5024207;28;20633;-73
2023/12/07 09:33:26;;;;;;;20.23;11.90;;;;;;;;;;5008303;28;20064;-74
2023/12/07 09:35:51;;;;;;;21.97;11.23;;;;;;;;;;5021056;28;20075;-75
2023/12/07 09:38:17;;;;;;;19.87;10.37;;;;;;;;;;5019172;28;20034;-76
2023/12/07 09:40:45;;;;;;;21.27;10.50;;;;;;;;;;5023910;28;20033;-70
2023/12/07 09:43:13;;;;;;;25.00;14.20;;;;;;;;;;5019031;28;20038;-76
2023/12/07 09:45:38;;;;;;;23.27;11.47;;;;;;;;;;5021099;28;20264;-74
2023/12/07 09:48:05;;;;;;;23.10;11.07;;;;;;;;;;5021355;28;20086;-75
2023/12/07 09:50:31;;;;;;;22.13;11.13;;;;;;;;;;5020047;28;20524;-74
2023/12/07 09:52:58;;;;;;;23.17;13.30;;;;;;;;;;5022202;28;20185;-73
2023/12/07 09:55:25;;;;;;;22.80;11.83;;;;;;;;;;5017064;28;20073;-74
2023/12/07 09:57:51;;;;;;;32.40;14.10;;;;;;;;;;5024201;28;20604;-77
2023/12/07 10:00:18;;;;;;;21.87;11.97;;;;;;;;;;5018022;28;20488;-72
2023/12/07 10:02:46;;;;;;;27.23;14.47;;;;;;;;;;5018073;28;20029;-71
2023/12/07 10:05:16;;;;;;;24.93;13.77;;;;;;;;;;5020381;28;20057;-74
2023/12/07 10:07:49;;;;;;;25.73;13.07;;;;;;;;;;5008946;28;20038;-73
2023/12/07 10:10:16;;;;;;;25.83;12.43;;;;;;;;;;5024389;28;20511;-74
2023/12/07 10:12:52;;;;;;;29.90;13.63;;;;;;;;;;5023875;28;20485;-74
2023/12/07 10:15:20;;;;;;;22.57;12.07;;;;;;;;;;5025298;28;20241;-77
2023/12/07 10:17:52;;;;;;;24.77;12.57;;;;;;;;;;5029120;28;20461;-79
2023/12/07 10:20:23;;;;;;;22.53;11.27;;;;;;;;;;5013402;28;20386;-75
2023/12/07 10:23:11;;;;;;;37.00;18.95;;;;;;;;;;5024731;28;20029;-77
2023/12/07 10:25:41;;;;;;;29.80;14.00;;;;;;;;;;5026993;28;20049;-76
2023/12/07 10:28:13;;;;;;;25.53;13.17;;;;;;;;;;5024522;28;20025;-76
2023/12/07 10:30:57;;;;;;;28.47;13.37;;;;;;;;;;5027588;28;20029;-77
2023/12/07 10:33:23;;;;;;;30.17;13.87;;;;;;;;;;5024593;28;20057;-73
2023/12/07 10:35:50;;;;;;;23.70;12.03;;;;;;;;;;5031849;28;20114;-74
2023/12/07 10:38:19;;;;;;;24.53;12.43;;;;;;;;;;5030721;28;20075;-74
2023/12/07 10:40:46;;;;;;;27.87;12.43;;;;;;;;;;5034707;28;20440;-75
2023/12/07 10:43:15;;;;;;;26.20;14.17;;;;;;;;;;5034786;28;20029;-77
2023/12/07 10:45:43;;;;;;;24.60;12.07;;;;;;;;;;5032833;28;20033;-74
2023/12/07 10:48:10;;;;;;;29.57;13.00;;;;;;;;;;5027694;28;20029;-71
2023/12/07 10:50:46;;;;;;;29.23;14.10;;;;;;;;;;5026405;28;20053;-75
2023/12/07 10:53:23;;;;;;;33.53;15.13;;;;;;;;;;5024467;28;20037;-76
2023/12/07 10:56:01;;;;;;;31.20;13.93;;;;;;;;;;5006343;28;20083;-80
2023/12/07 10:58:27;;;;;;;38.03;22.87;;;;;;;;;;5018613;28;20029;-74
2023/12/07 11:00:54;;;;;;;38.90;20.43;;;;;;;;;;5006073;28;20033;-72
2023/12/07 11:03:21;;;;;;;35.40;17.13;;;;;;;;;;5027379;28;20048;-73
2023/12/07 11:05:50;;;;;;;30.93;15.20;;;;;;;;;;5027580;28;20025;-77
2023/12/07 11:08:38;;;;;;;31.00;15.27;;;;;;;;;;5014242;28;20076;-74
2023/12/07 11:11:33;;;;;;;22.37;12.70;;;;;;;;;;5024900;28;20112;-75
2023/12/07 11:14:02;;;;;;;26.17;12.27;;;;;;;;;;5019949;28;20030;-74
2023/12/07 11:16:40;;;;;;;28.20;14.67;;;;;;;;;;5024698;28;20033;-73
2023/12/07 11:19:35;;;;;;;23.77;12.17;;;;;;;;;;5021085;28;20124;-76
2023/12/07 11:22:07;;;;;;;25.47;12.90;;;;;;;;;;5019125;28;20026;-75
2023/12/07 11:24:33;;;;;;;19.90;10.60;;;;;;;;;;5029402;28;20114;-74
2023/12/07 11:26:58;;;;;;;37.83;17.43;;;;;;;;;;5005803;28;20379;-77
2023/12/07 11:29:28;;;;;;;27.90;14.00;;;;;;;;;;5027370;28;20021;-77
2023/12/07 11:32:01;;;;;;;30.43;13.00;;;;;;;;;;5010028;28;20217;-75
2023/12/07 11:34:38;;;;;;;26.13;13.53;;;;;;;;;;5042301;28;20342;-73
2023/12/07 11:37:04;;;;;;;25.93;13.53;;;;;;;;;;5018472;28;20026;-75
2023/12/07 11:39:47;;;;;;;24.73;11.80;;;;;;;;;;5020972;28;20099;-77
2023/12/07 11:42:18;;;;;;;27.97;15.37;;;;;;;;;;5018949;28;20056;-76
2023/12/07 11:44:48;;;;;;;25.33;12.07;;;;;;;;;;5018170;28;20608;-75
2023/12/07 11:47:19;;;;;;;23.67;12.30;;;;;;;;;;5021681;28;20040;-75
2023/12/07 11:49:45;;;;;;;27.70;12.63;;;;;;;;;;5026983;28;20116;-75
2023/12/07 11:52:19;;;;;;;24.87;11.97;;;;;;;;;;5026517;28;20089;-73
2023/12/07 11:54:46;;;;;;;23.97;12.37;;;;;;;;;;5018307;28;20064;-74
2023/12/07 11:57:13;;;;;;;30.43;14.13;;;;;;;;;;5021812;28;20054;-77
2023/12/07 11:59:44;;;;;;;26.20;12.77;;;;;;;;;;5025556;28;20024;-72
2023/12/07 12:02:13;;;;;;;26.50;12.95;;;;;;;;;;5027265;28;20033;-74
2023/12/07 12:04:42;;;;;;;24.53;12.07;;;;;;;;;;5036422;28;20044;-73
2023/12/07 12:07:08;;;;;;;22.00;11.63;;;;;;;;;;5018360;28;20392;-71
2023/12/07 12:09:34;;;;;;;27.87;13.40;;;;;;;;;;5017133;28;20049;-75
2023/12/07 12:12:00;;;;;;;25.80;13.60;;;;;;;;;;5020587;28;20033;-74
2023/12/07 12:14:27;;;;;;;25.47;12.30;;;;;;;;;;5025482;28;21188;-74
2023/12/07 12:16:55;;;;;;;23.23;12.90;;;;;;;;;;5022111;28;20540;-74
2023/12/07 12:19:24;;;;;;;26.00;13.20;;;;;;;;;;5021389;28;20082;-72
2023/12/07 12:21:51;;;;;;;22.87;12.00;;;;;;;;;;5002063;28;20040;-75
2023/12/07 12:24:16;;;;;;;25.03;12.67;;;;;;;;;;5019587;28;20859;-75
2023/12/07 12:26:44;;;;;;;24.73;11.17;;;;;;;;;;5021615;28;20033;-77
2023/12/07 12:29:11;;;;;;;28.83;13.23;;;;;;;;;;5027333;28;20028;-74
2023/12/07 12:31:37;;;;;;;24.30;13.50;;;;;;;;;;5004252;28;20065;-73
2023/12/07 12:34:05;;;;;;;24.20;12.17;;;;;;;;;;5024803;28;20033;-71
2023/12/07 12:36:31;;;;;;;22.90;12.37;;;;;;;;;;5020280;28;21047;-75
2023/12/07 12:38:56;;;;;;;24.20;13.37;;;;;;;;;;5021029;28;20034;-75
2023/12/07 12:41:23;;;;;;;25.67;12.40;;;;;;;;;;5023487;28;20028;-75
2023/12/07 12:43:51;;;;;;;24.73;14.60;;;;;;;;;;5023150;28;20489;-76
2023/12/07 12:46:16;;;;;;;21.33;10.77;;;;;;;;;;5023309;28;20032;-74
2023/12/07 12:48:59;;;;;;;23.70;12.27;;;;;;;;;;5026568;28;20041;-75
2023/12/07 12:51:29;;;;;;;24.03;12.57;;;;;;;;;;5023972;28;20036;-75
2023/12/07 12:53:56;;;;;;;28.60;13.60;;;;;;;;;;5016457;28;20116;-78
2023/12/07 12:56:22;;;;;;;23.63;11.20;;;;;;;;;;5020164;28;20128;-72
2023/12/07 12:58:50;;;;;;;22.13;12.00;;;;;;;;;;5038126;28;20032;-72
2023/12/07 13:01:17;;;;;;;24.77;12.93;;;;;;;;;;5037035;28;20051;-73
2023/12/07 13:03:47;;;;;;;25.40;11.87;;;;;;;;;;5013972;28;20107;-75
2023/12/07 13:06:14;;;;;;;26.33;11.13;;;;;;;;;;5019364;28;20033;-69
2023/12/07 13:08:45;;;;;;;16.03;8.63;;;;;;;;;;5020609;28;20497;-73
2023/12/07 13:11:18;;;;;;;17.23;9.77;;;;;;;;;;5012201;28;20033;-77
2023/12/07 13:13:47;;;;;;;17.03;8.73;;;;;;;;;;4997766;28;20409;-71
2023/12/07 13:16:14;;;;;;;11.97;7.57;;;;;;;;;;5016920;28;20036;-75
2023/12/07 13:18:41;;;;;;;17.20;7.87;;;;;;;;;;5023896;28;20499;-76
2023/12/07 13:21:09;;;;;;;15.60;8.00;;;;;;;;;;5020135;28;20519;-74
2023/12/07 13:23:36;;;;;;;21.57;9.33;;;;;;;;;;5037318;28;20056;-76
2023/12/07 13:26:06;;;;;;;14.83;8.43;;;;;;;;;;5019461;28;20029;-74
2023/12/07 13:28:33;;;;;;;21.67;10.53;;;;;;;;;;5023806;28;20034;-76
2023/12/07 13:30:59;;;;;;;17.07;8.17;;;;;;;;;;5012136;28;20043;-74
2023/12/07 13:33:28;;;;;;;17.73;9.53;;;;;;;;;;5017919;28;20069;-75
2023/12/07 13:35:57;;;;;;;18.50;9.23;;;;;;;;;;5022800;28;20534;-76
2023/12/07 13:38:23;;;;;;;19.83;10.17;;;;;;;;;;5016613;28;20560;-74
2023/12/07 13:40:51;;;;;;;19.07;9.60;;;;;;;;;;5013882;28;20048;-75
2023/12/07 13:43:17;;;;;;;17.03;8.40;;;;;;;;;;5016274;28;20034;-75
2023/12/07 13:45:46;;;;;;;12.60;7.30;;;;;;;;;;5020310;28;20045;-74
2023/12/07 13:48:15;;;;;;;19.00;10.33;;;;;;;;;;5028195;28;20107;-75
2023/12/07 13:50:44;;;;;;;25.57;9.90;;;;;;;;;;5020951;28;20128;-75
2023/12/07 13:53:10;;;;;;;22.03;10.70;;;;;;;;;;5021921;28;20041;-75
2023/12/07 13:55:37;;;;;;;23.67;11.13;;;;;;;;;;5028721;28;20144;-74
2023/12/07 13:58:06;;;;;;;20.03;9.37;;;;;;;;;;5030546;28;20030;-75
2023/12/07 14:00:34;;;;;;;20.93;9.70;;;;;;;;;;5027018;28;20025;-72
2023/12/07 14:03:04;;;;;;;19.37;9.83;;;;;;;;;;5030793;28;20044;-74
2023/12/07 14:05:35;;;;;;;22.30;10.45;;;;;;;;;;5034656;28;20068;-78
2023/12/07 14:08:05;;;;;;;16.73;8.77;;;;;;;;;;5025822;28;20026;-77
2023/12/07 14:10:31;;;;;;;34.30;13.97;;;;;;;;;;5028803;28;20359;-77
2023/12/07 14:12:58;;;;;;;16.30;9.77;;;;;;;;;;5024462;28;21189;-75
2023/12/07 14:15:24;;;;;;;14.97;7.90;;;;;;;;;;5046892;28;20029;-75
2023/12/07 14:17:50;;;;;;;31.07;13.63;;;;;;;;;;5024524;28;20723;-73
2023/12/07 14:20:16;;;;;;;19.47;10.20;;;;;;;;;;5029538;28;20029;-76
2023/12/07 14:22:46;;;;;;;20.30;10.27;;;;;;;;;;5031271;28;20058;-76